createdAt,value
2022-08-26T00:01:29.075Z,101637.03
2022-08-26T00:03:56.819Z,101643.00
2022-08-26T00:06:24.655Z,101638.66
2022-08-26T00:08:51.637Z,101638.25
2022-08-26T00:11:26.888Z,101636.66
2022-08-26T00:13:55.055Z,101639.78
2022-08-26T00:16:23.497Z,101637.03
2022-08-26T00:18:50.485Z,101642.13
2022-08-26T00:21:16.993Z,101640.22
2022-08-26T00:23:43.493Z,101648.91
2022-08-26T00:26:09.911Z,101639.78
2022-08-26T00:28:38.065Z,101639.00
2022-08-26T00:31:07.716Z,101643.75
2022-08-26T00:33:38.179Z,101644.16
2022-08-26T00:36:05.678Z,101641.88
2022-08-26T00:38:32.350Z,101639.16
2022-08-26T00:40:58.842Z,101634.03
2022-08-26T00:43:25.791Z,101633.72
2022-08-26T00:46:00.965Z,101632.59
2022-08-26T00:48:32.336Z,101640.13
2022-08-26T00:51:04.481Z,101647.63
2022-08-26T00:53:37.005Z,101646.06
2022-08-26T00:56:09.688Z,101648.41
2022-08-26T00:58:42.993Z,101646.38
2022-08-26T01:01:10.686Z,101645.63
2022-08-26T01:03:37.948Z,101650.31
2022-08-26T01:06:06.192Z,101638.47
2022-08-26T01:08:39.335Z,101646.34
2022-08-26T01:11:06.927Z,101645.97
2022-08-26T01:13:36.948Z,101638.91
2022-08-26T01:16:06.567Z,101636.16
2022-08-26T01:18:33.753Z,101623.19
2022-08-26T01:21:21.434Z,101628.75
2022-08-26T01:23:51.515Z,101625.59
2022-08-26T01:26:32.415Z,101631.94
2022-08-26T01:29:02.961Z,101632.34
2022-08-26T01:31:35.242Z,101633.53
2022-08-26T01:34:19.933Z,101635.56
2022-08-26T01:36:51.196Z,101637.94
2022-08-26T01:39:18.755Z,101637.94
2022-08-26T01:41:46.327Z,101635.19
2022-08-26T01:44:22.034Z,101634.00
2022-08-26T01:46:50.747Z,101634.41
2022-08-26T01:49:18.687Z,101634.00
2022-08-26T01:51:47.981Z,101633.59
2022-08-26T01:54:15.936Z,101643.44
2022-08-26T01:56:42.948Z,101644.19
2022-08-26T01:59:14.811Z,101638.31
2022-08-26T02:01:41.533Z,101643.47
2022-08-26T02:04:29.332Z,101640.31
2022-08-26T02:06:57.149Z,101648.63
2022-08-26T02:09:26.441Z,101643.59
2022-08-26T02:11:53.479Z,101638.06
2022-08-26T02:14:44.507Z,101647.56
2022-08-26T02:17:11.324Z,101644.00
2022-08-26T02:19:41.897Z,101645.59
2022-08-26T02:22:13.925Z,101644.84
2022-08-26T02:24:54.911Z,101652.28
2022-08-26T02:27:32.113Z,101649.50
2022-08-26T02:30:14.809Z,101646.34
2022-08-26T02:32:44.465Z,101647.56
2022-08-26T02:35:14.179Z,101638.91
2022-08-26T02:37:49.440Z,101643.22
2022-08-26T02:40:19.301Z,101638.91
2022-08-26T02:42:48.463Z,101636.97
2022-08-26T02:45:16.742Z,101636.59
2022-08-26T02:47:51.402Z,101631.13
2022-08-26T02:50:19.288Z,101627.97
2022-08-26T02:52:45.744Z,101627.97
2022-08-26T02:55:12.406Z,101622.09
2022-08-26T02:57:39.187Z,101628.03
2022-08-26T03:00:09.101Z,101634.34
2022-08-26T03:02:35.720Z,101638.69
2022-08-26T03:05:02.640Z,101629.69
2022-08-26T03:07:29.957Z,101625.78
2022-08-26T03:09:57.157Z,101631.28
2022-08-26T03:12:24.016Z,101631.66
2022-08-26T03:14:52.089Z,101647.03
2022-08-26T03:17:18.888Z,101654.06
2022-08-26T03:19:45.369Z,101645.81
2022-08-26T03:22:12.038Z,101638.31
2022-08-26T03:24:41.212Z,101637.13
2022-08-26T03:27:12.648Z,101635.16
2022-08-26T03:29:58.182Z,101636.72
2022-08-26T03:32:24.657Z,101633.59
2022-08-26T03:34:54.204Z,101630.88
2022-08-26T03:37:21.556Z,101640.72
2022-08-26T03:39:48.797Z,101643.06
2022-08-26T03:42:16.048Z,101637.56
2022-08-26T03:44:42.578Z,101644.28
2022-08-26T03:47:09.207Z,101636.78
2022-08-26T03:49:36.068Z,101642.69
2022-08-26T03:52:03.798Z,101639.16
2022-08-26T03:54:30.632Z,101647.78
2022-08-26T03:56:57.051Z,101634.41
2022-08-26T03:59:23.496Z,101643.84
2022-08-26T04:01:51.293Z,101639.06
2022-08-26T04:04:18.313Z,101637.88
2022-08-26T04:06:50.160Z,101639.44
2022-08-26T04:09:21.019Z,101643.78
2022-08-26T04:11:50.425Z,101646.53
2022-08-26T04:14:20.460Z,101640.66
2022-08-26T04:16:48.059Z,101628.44
2022-08-26T04:19:15.764Z,101635.97
2022-08-26T04:21:43.112Z,101629.28
2022-08-26T04:24:12.333Z,101633.25
2022-08-26T04:26:42.765Z,101626.97
2022-08-26T04:29:13.072Z,101627.38
2022-08-26T04:31:39.645Z,101625.84
2022-08-26T04:34:07.236Z,101636.06
2022-08-26T04:36:34.164Z,101635.66
2022-08-26T04:39:04.002Z,101634.13
2022-08-26T04:41:31.783Z,101631.75
2022-08-26T04:43:58.352Z,101632.88
2022-08-26T04:46:25.598Z,101645.88
2022-08-26T04:48:53.577Z,101638.78
2022-08-26T04:51:21.284Z,101648.59
2022-08-26T04:53:48.469Z,101648.97
2022-08-26T04:56:16.713Z,101653.72
2022-08-26T04:58:43.436Z,101648.59
2022-08-26T05:01:10.074Z,101658.47
2022-08-26T05:03:36.932Z,101656.53
2022-08-26T05:06:05.361Z,101653.81
2022-08-26T05:08:31.814Z,101662.06
2022-08-26T05:10:58.243Z,101660.09
2022-08-26T05:13:27.563Z,101662.09
2022-08-26T05:15:54.510Z,101656.22
2022-08-26T05:18:24.220Z,101658.16
2022-08-26T05:20:53.904Z,101659.38
2022-08-26T05:23:22.823Z,101669.56
2022-08-26T05:25:54.663Z,101668.41
2022-08-26T05:28:23.693Z,101674.28
2022-08-26T05:30:52.419Z,101676.22
2022-08-26T05:33:19.796Z,101667.97
2022-08-26T05:35:47.151Z,101670.31
2022-08-26T05:38:16.748Z,101673.03
2022-08-26T05:40:46.402Z,101678.91
2022-08-26T05:43:13.686Z,101681.28
2022-08-26T05:45:45.853Z,101684.03
2022-08-26T05:48:13.669Z,101686.81
2022-08-26T05:50:49.347Z,101686.03
2022-08-26T05:53:18.778Z,101689.19
2022-08-26T05:55:49.812Z,101688.41
2022-08-26T05:58:20.138Z,101693.13
2022-08-26T06:00:55.972Z,101693.53
2022-08-26T06:03:22.585Z,101697.88
2022-08-26T06:05:49.118Z,101695.91
2022-08-26T06:08:15.720Z,101701.00
2022-08-26T06:10:52.501Z,101697.44
2022-08-26T06:13:26.893Z,101696.66
2022-08-26T06:15:59.333Z,101702.16
2022-08-26T06:18:34.850Z,101701.31
2022-08-26T06:21:13.404Z,101707.59
2022-08-26T06:23:58.668Z,101713.88
2022-08-26T06:26:26.106Z,101711.47
2022-08-26T06:28:52.800Z,101723.31
2022-08-26T06:31:19.440Z,101707.97
2022-08-26T06:33:45.997Z,101708.00
2022-08-26T06:36:25.391Z,101718.66
2022-08-26T06:38:53.710Z,101721.81
2022-08-26T06:41:21.461Z,101717.84
2022-08-26T06:43:48.697Z,101720.97
2022-08-26T06:46:18.041Z,101721.31
2022-08-26T06:48:45.462Z,101722.44
2022-08-26T06:51:18.707Z,101725.19
2022-08-26T06:53:47.119Z,101722.75
2022-08-26T06:56:17.792Z,101734.09
2022-08-26T06:58:45.913Z,101731.72
2022-08-26T07:01:21.864Z,101736.84
2022-08-26T07:03:50.403Z,101739.59
2022-08-26T07:06:19.398Z,101739.59
2022-08-26T07:08:50.909Z,101740.00
2022-08-26T07:11:19.034Z,101736.50
2022-08-26T07:13:46.612Z,101745.56
2022-08-26T07:16:18.003Z,101756.63
2022-08-26T07:18:45.213Z,101744.84
2022-08-26T07:21:15.371Z,101751.16
2022-08-26T07:23:41.935Z,101753.91
2022-08-26T07:26:16.163Z,101753.13
2022-08-26T07:28:44.197Z,101754.69
2022-08-26T07:31:12.896Z,101755.50
2022-08-26T07:33:41.097Z,101760.19
2022-08-26T07:36:09.604Z,101761.78
2022-08-26T07:38:37.369Z,101762.13
2022-08-26T07:41:03.913Z,101765.22
2022-08-26T07:43:30.644Z,101775.84
2022-08-26T07:45:57.710Z,101776.25
2022-08-26T07:48:25.180Z,101777.03
2022-08-26T07:50:53.641Z,101779.41
2022-08-26T07:53:21.810Z,101777.78
2022-08-26T07:55:51.159Z,101784.47
2022-08-26T07:58:18.647Z,101786.41
2022-08-26T08:00:45.891Z,101788.75
2022-08-26T08:03:13.189Z,101793.50
2022-08-26T08:05:41.372Z,101794.28
2022-08-26T08:08:27.104Z,101794.69
2022-08-26T08:13:22.973Z,101790.03
2022-08-26T08:15:50.333Z,101787.66
2022-08-26T08:18:16.901Z,101786.09
2022-08-26T08:20:47.617Z,101782.94
2022-08-26T08:23:26.009Z,101785.66
2022-08-26T08:26:10.230Z,101787.22
2022-08-26T08:28:38.390Z,101782.06
2022-08-26T08:31:05.691Z,101785.19
2022-08-26T08:33:33.708Z,101780.84
2022-08-26T08:36:00.996Z,101782.84
2022-08-26T08:38:29.619Z,101789.94
2022-08-26T08:40:56.039Z,101797.84
2022-08-26T08:43:39.931Z,101795.13
2022-08-26T08:46:12.276Z,101800.28
2022-08-26T08:48:48.345Z,101799.13
2022-08-26T08:51:29.349Z,101805.41
2022-08-26T08:53:56.747Z,101792.78
2022-08-26T08:56:33.360Z,101797.88
2022-08-26T08:59:26.023Z,101800.25
2022-08-26T09:01:59.991Z,101799.88
2022-08-26T09:04:47.967Z,101811.19
2022-08-26T09:07:22.095Z,101805.25
2022-08-26T09:10:00.145Z,101804.44
2022-08-26T09:12:31.963Z,101807.16
2022-08-26T09:15:11.301Z,101812.66
2022-08-26T09:17:59.834Z,101805.19
2022-08-26T09:21:03.561Z,101809.50
2022-08-26T09:23:32.829Z,101817.38
2022-08-26T09:26:25.948Z,101804.78
2022-08-26T09:29:03.647Z,101818.19
2022-08-26T09:31:36.413Z,101812.69
2022-08-26T09:34:19.584Z,101820.56
2022-08-26T09:36:49.379Z,101822.13
2022-08-26T09:39:28.062Z,101819.78
2022-08-26T09:42:08.394Z,101817.00
2022-08-26T09:44:54.007Z,101824.84
2022-08-26T09:47:41.487Z,101817.31
2022-08-26T09:50:23.560Z,101824.69
2022-08-26T09:53:13.144Z,101817.16
2022-08-26T09:55:44.911Z,101820.28
2022-08-26T09:58:17.388Z,101824.56
2022-08-26T10:01:01.509Z,101821.03
2022-08-26T10:03:32.825Z,101825.81
2022-08-26T10:06:02.808Z,101821.47
2022-08-26T10:08:33.025Z,101826.22
2022-08-26T10:11:02.431Z,101823.09
2022-08-26T10:13:35.459Z,101824.69
2022-08-26T10:16:11.087Z,101816.84
2022-08-26T10:18:42.998Z,101820.41
2022-08-26T10:21:14.403Z,101814.09
2022-08-26T10:23:50.128Z,101812.53
2022-08-26T10:26:27.717Z,101814.84
2022-08-26T10:29:12.445Z,101814.75
2022-08-26T10:32:03.470Z,101814.66
2022-08-26T10:34:32.594Z,101821.25
2022-08-26T10:37:14.430Z,101815.69
2022-08-26T10:39:57.105Z,101813.63
2022-08-26T10:42:42.869Z,101819.09
2022-08-26T10:45:15.501Z,101810.03
2022-08-26T10:48:01.345Z,101816.78
2022-08-26T10:50:35.693Z,101814.75
2022-08-26T10:53:12.919Z,101819.06
2022-08-26T10:56:01.119Z,101815.78
2022-08-26T10:58:56.815Z,101821.53
2022-08-26T11:01:53.887Z,101816.28
2022-08-26T11:04:23.245Z,101816.59
2022-08-26T11:07:32.560Z,101820.75
2022-08-26T11:10:06.847Z,101812.00
2022-08-26T11:12:36.101Z,101816.59
2022-08-26T11:15:08.703Z,101818.81
2022-08-26T11:17:43.992Z,101822.56
2022-08-26T11:20:23.930Z,101824.38
2022-08-26T11:22:51.940Z,101816.56
2022-08-26T11:25:20.284Z,101821.06
2022-08-26T11:27:52.781Z,101819.38
2022-08-26T11:30:20.322Z,101821.00
2022-08-26T11:32:48.961Z,101820.16
2022-08-26T11:35:18.516Z,101817.75
2022-08-26T11:37:48.288Z,101824.44
2022-08-26T11:40:18.408Z,101823.69
2022-08-26T11:42:54.333Z,101822.22
2022-08-26T11:45:41.752Z,101818.66
2022-08-26T11:48:27.060Z,101817.31
2022-08-26T11:51:09.700Z,101825.50
2022-08-26T11:53:39.662Z,101823.88
2022-08-26T11:56:10.519Z,101827.06
2022-08-26T11:58:45.677Z,101820.81
2022-08-26T12:02:04.562Z,101814.97
2022-08-26T12:04:39.713Z,101816.84
2022-08-26T12:07:08.735Z,101816.84
2022-08-26T12:09:38.341Z,101828.88
2022-08-26T12:12:16.055Z,101824.19
2022-08-26T12:14:43.563Z,101819.56
2022-08-26T12:17:16.651Z,101830.31
2022-08-26T12:19:43.573Z,101817.75
2022-08-26T12:22:20.874Z,101822.91
2022-08-26T12:24:53.775Z,101829.25
2022-08-26T12:27:36.738Z,101824.06
2022-08-26T12:30:37.532Z,101824.13
2022-08-26T12:33:22.529Z,101828.88
2022-08-26T12:35:54.783Z,101829.91
2022-08-26T12:38:25.007Z,101833.84
2022-08-26T12:40:51.755Z,101826.22
2022-08-26T12:43:47.305Z,101844.69
2022-08-26T12:46:17.892Z,101838.19
2022-08-26T12:48:49.460Z,101848.63
2022-08-26T12:51:23.519Z,101840.13
2022-08-26T12:53:50.371Z,101847.72
2022-08-26T12:56:21.632Z,101843.00
2022-08-26T12:59:02.870Z,101846.25
2022-08-26T13:01:42.291Z,101841.25
2022-08-26T13:04:31.896Z,101852.81
2022-08-26T13:07:26.628Z,101848.06
2022-08-26T13:09:58.284Z,101837.94
2022-08-26T13:12:37.473Z,101833.81
2022-08-26T13:15:05.266Z,101821.81
2022-08-26T13:17:31.692Z,101827.56
2022-08-26T13:20:03.433Z,101832.34
2022-08-26T13:22:30.784Z,101826.22
2022-08-26T13:24:57.822Z,101832.34
2022-08-26T13:27:26.356Z,101831.03
2022-08-26T13:29:53.754Z,101823.81
2022-08-26T13:32:30.294Z,101818.16
2022-08-26T13:34:57.417Z,101823.69
2022-08-26T13:37:35.312Z,101823.63
2022-08-26T13:40:04.734Z,101820.78
2022-08-26T13:42:31.437Z,101822.78
2022-08-26T13:44:58.838Z,101818.84
2022-08-26T13:47:26.363Z,101816.41
2022-08-26T13:49:54.600Z,101819.09
2022-08-26T13:52:30.195Z,101818.56
2022-08-26T13:54:58.679Z,101822.72
2022-08-26T13:57:27.992Z,101827.63
2022-08-26T13:59:56.416Z,101830.22
2022-08-26T14:02:23.132Z,101830.91
2022-08-26T14:04:49.792Z,101829.22
2022-08-26T14:10:07.200Z,101833.91
2022-08-26T14:12:33.629Z,101836.91
2022-08-26T14:15:00.474Z,101833.56
2022-08-26T14:17:27.048Z,101834.56
2022-08-26T14:19:57.314Z,101839.06
2022-08-26T14:22:24.011Z,101832.81
2022-08-26T14:24:50.735Z,101830.94
2022-08-26T14:27:17.362Z,101829.44
2022-08-26T14:29:43.853Z,101827.97
2022-08-26T14:32:21.414Z,101819.72
2022-08-26T14:34:48.965Z,101818.16
2022-08-26T14:37:15.535Z,101818.53
2022-08-26T14:39:42.148Z,101816.41
2022-08-26T14:42:10.155Z,101808.06
2022-08-26T14:44:37.262Z,101816.41
2022-08-26T14:47:06.596Z,101822.75
2022-08-26T14:49:33.078Z,101813.03
2022-08-26T14:51:59.885Z,101823.75
2022-08-26T14:54:26.453Z,101813.97
2022-08-26T14:56:57.675Z,101807.94
2022-08-26T14:59:31.130Z,101807.41
2022-08-26T15:01:57.935Z,101802.59
2022-08-26T15:04:25.441Z,101796.72
2022-08-26T15:06:54.262Z,101804.69
2022-08-26T15:09:21.795Z,101811.09
2022-08-26T15:11:48.437Z,101806.34
2022-08-26T15:14:19.455Z,101812.13
2022-08-26T15:16:51.969Z,101807.19
2022-08-26T15:19:19.556Z,101809.00
2022-08-26T15:21:47.050Z,101811.66
2022-08-26T15:24:15.694Z,101812.56
2022-08-26T15:26:43.258Z,101804.72
2022-08-26T15:29:10.162Z,101803.06
2022-08-26T15:31:36.891Z,101809.72
2022-08-26T15:34:06.310Z,101799.44
2022-08-26T15:36:33.614Z,101789.56
2022-08-26T15:39:01.404Z,101789.91
2022-08-26T15:41:29.555Z,101786.66
2022-08-26T15:43:56.784Z,101787.13
2022-08-26T15:46:23.830Z,101789.94
2022-08-26T15:48:50.409Z,101797.38
2022-08-26T15:51:26.540Z,101797.78
2022-08-26T15:53:56.189Z,101791.97
2022-08-26T15:56:26.846Z,101784.94
2022-08-26T15:58:56.205Z,101792.88
2022-08-26T16:01:24.201Z,101793.69
2022-08-26T16:03:55.075Z,101796.81
2022-08-26T16:06:25.852Z,101788.72
2022-08-26T16:08:52.430Z,101791.22
2022-08-26T16:11:19.839Z,101799.50
2022-08-26T16:13:46.984Z,101801.84
2022-08-26T16:16:13.634Z,101803.88
2022-08-26T16:18:40.272Z,101795.25
2022-08-26T16:21:13.208Z,101795.28
2022-08-26T16:23:40.965Z,101787.09
2022-08-26T16:26:16.740Z,101791.03
2022-08-26T16:28:43.813Z,101791.03
2022-08-26T16:31:10.662Z,101798.09
2022-08-26T16:33:40.080Z,101794.16
2022-08-26T16:36:08.392Z,101793.03
2022-08-26T16:38:35.579Z,101789.13
2022-08-26T16:41:02.455Z,101791.53
2022-08-26T16:43:29.118Z,101800.72
2022-08-26T16:45:55.980Z,101806.75
2022-08-26T16:48:23.703Z,101804.44
2022-08-26T16:50:51.298Z,101806.88
2022-08-26T16:53:19.015Z,101806.19
2022-08-26T16:55:47.447Z,101806.97
2022-08-26T16:58:14.685Z,101803.88
2022-08-26T17:00:41.148Z,101807.09
2022-08-26T17:03:07.738Z,101805.16
2022-08-26T17:05:34.316Z,101809.19
2022-08-26T17:08:00.965Z,101812.00
2022-08-26T17:10:28.889Z,101816.78
2022-08-26T17:12:56.062Z,101815.56
2022-08-26T17:15:23.784Z,101816.38
2022-08-26T17:17:53.928Z,101813.63
2022-08-26T17:20:22.462Z,101811.72
2022-08-26T17:22:50.737Z,101815.69
2022-08-26T17:25:21.238Z,101816.91
2022-08-26T17:27:48.374Z,101819.25
2022-08-26T17:30:16.524Z,101823.19
2022-08-26T17:32:43.052Z,101824.41
2022-08-26T17:35:13.032Z,101833.06
2022-08-26T17:37:40.464Z,101822.88
2022-08-26T17:40:10.992Z,101822.47
2022-08-26T17:42:43.122Z,101824.44
2022-08-26T17:45:11.042Z,101829.53
2022-08-26T17:47:38.741Z,101824.84
2022-08-26T17:50:07.020Z,101833.91
2022-08-26T17:52:33.611Z,101822.53
2022-08-26T17:55:00.098Z,101828.06
2022-08-26T17:57:27.070Z,101841.03
2022-08-26T17:59:54.303Z,101829.66
2022-08-26T18:02:21.405Z,101842.25
2022-08-26T18:04:48.732Z,101843.88
2022-08-26T18:07:16.664Z,101850.97
2022-08-26T18:09:43.847Z,101841.53
2022-08-26T18:12:10.921Z,101847.03
2022-08-26T18:14:37.843Z,101846.28
2022-08-26T18:17:04.941Z,101848.66
2022-08-26T18:19:31.551Z,101850.63
2022-08-26T18:21:58.320Z,101849.84
2022-08-26T18:24:25.000Z,101845.13
2022-08-26T18:26:51.419Z,101839.25
2022-08-26T18:29:19.631Z,101850.25
2022-08-26T18:31:46.666Z,101847.88
2022-08-26T18:34:15.334Z,101856.13
2022-08-26T18:36:42.842Z,101854.16
2022-08-26T18:39:10.595Z,101845.94
2022-08-26T18:41:43.615Z,101856.53
2022-08-26T18:44:13.574Z,101854.94
2022-08-26T18:46:40.515Z,101856.94
2022-08-26T18:49:06.984Z,101863.59
2022-08-26T18:51:34.256Z,101864.00
2022-08-26T18:54:02.777Z,101861.63
2022-08-26T18:56:30.228Z,101863.63
2022-08-26T18:58:58.215Z,101870.69
2022-08-26T19:01:27.581Z,101866.75
2022-08-26T19:03:55.640Z,101871.09
2022-08-26T19:06:24.385Z,101873.03
2022-08-26T19:08:50.839Z,101875.41
2022-08-26T19:11:32.257Z,101880.91
2022-08-26T19:14:00.672Z,101875.00
2022-08-26T19:16:27.601Z,101887.59
2022-08-26T19:18:55.464Z,101884.84
2022-08-26T19:21:22.946Z,101886.38
2022-08-26T19:23:50.269Z,101889.13
2022-08-26T19:26:16.913Z,101893.47
2022-08-26T19:28:43.539Z,101883.66
2022-08-26T19:31:11.599Z,101887.59
2022-08-26T19:33:43.466Z,101883.25
2022-08-26T19:36:15.328Z,101882.88
2022-08-26T19:38:42.697Z,101888.75
2022-08-26T19:41:18.200Z,101890.31
2022-08-26T19:43:46.193Z,101888.75
2022-08-26T19:46:20.504Z,101897.78
2022-08-26T19:48:47.709Z,101894.63
2022-08-26T19:51:24.333Z,101892.25
2022-08-26T19:53:52.153Z,101895.00
2022-08-26T19:56:18.915Z,101893.41
2022-08-26T19:58:46.071Z,101892.59
2022-08-26T20:01:14.315Z,101905.91
2022-08-26T20:03:41.276Z,101902.00
2022-08-26T20:06:09.798Z,101898.03
2022-08-26T20:08:38.730Z,101909.03
2022-08-26T20:11:09.024Z,101907.03
2022-08-26T20:13:36.493Z,101909.00
2022-08-26T20:16:03.169Z,101907.03
2022-08-26T20:18:48.175Z,101905.47
2022-08-26T20:21:26.447Z,101901.53
2022-08-26T20:24:02.643Z,101904.66
2022-08-26T20:26:31.651Z,101894.03
2022-08-26T20:28:59.079Z,101900.72
2022-08-26T20:31:26.221Z,101892.84
2022-08-26T20:33:53.522Z,101891.66
2022-08-26T20:36:22.256Z,101897.91
2022-08-26T20:38:49.805Z,101898.72
2022-08-26T20:41:17.132Z,101900.28
2022-08-26T20:43:43.943Z,101894.41
2022-08-26T20:46:17.209Z,101893.25
2022-08-26T20:48:46.568Z,101898.34
2022-08-26T20:51:13.191Z,101901.50
2022-08-26T20:53:39.878Z,101899.53
2022-08-26T20:56:08.916Z,101901.91
2022-08-26T20:58:36.488Z,101901.50
2022-08-26T21:01:07.503Z,101896.41
2022-08-26T21:03:35.579Z,101894.03
2022-08-26T21:06:03.699Z,101899.53
2022-08-26T21:08:33.113Z,101901.88
2022-08-26T21:11:00.699Z,101900.66
2022-08-26T21:13:29.027Z,101904.19
2022-08-26T21:16:02.759Z,101902.97
2022-08-26T21:18:29.537Z,101900.19
2022-08-26T21:20:55.921Z,101897.00
2022-08-26T21:23:26.374Z,101893.09
2022-08-26T21:25:55.125Z,101896.94
2022-08-26T21:28:21.511Z,101900.13
2022-08-26T21:30:48.072Z,101900.53
2022-08-26T21:33:14.484Z,101897.41
2022-08-26T21:35:41.073Z,101907.19
2022-08-26T21:38:07.632Z,101903.28
2022-08-26T21:40:34.100Z,101903.25
2022-08-26T21:43:00.527Z,101907.94
2022-08-26T21:45:27.137Z,101906.41
2022-08-26T21:47:53.738Z,101910.69
2022-08-26T21:50:20.347Z,101907.16
2022-08-26T21:52:47.285Z,101903.59
2022-08-26T21:55:13.714Z,101913.69
2022-08-26T21:57:40.635Z,101905.81
2022-08-26T22:00:09.337Z,101914.06
2022-08-26T22:02:36.962Z,101914.09
2022-08-26T22:05:04.416Z,101921.16
2022-08-26T22:07:31.012Z,101918.03
2022-08-26T22:09:57.840Z,101919.59
2022-08-26T22:12:24.453Z,101922.28
2022-08-26T22:14:51.067Z,101918.03
2022-08-26T22:17:17.694Z,101921.53
2022-08-26T22:19:46.215Z,101934.47
2022-08-26T22:22:14.622Z,101926.66
2022-08-26T22:24:43.227Z,101923.50
2022-08-26T22:27:11.865Z,101920.31
2022-08-26T22:29:38.723Z,101920.34
2022-08-26T22:32:05.881Z,101920.38
2022-08-26T22:34:32.304Z,101921.53
2022-08-26T22:36:59.519Z,101915.28
2022-08-26T22:39:26.499Z,101919.56
2022-08-26T22:41:54.203Z,101916.78
2022-08-26T22:44:22.337Z,101919.13
2022-08-26T22:46:50.579Z,101925.31
2022-08-26T22:49:17.727Z,101916.34
2022-08-26T22:51:45.443Z,101914.38
2022-08-26T22:54:13.051Z,101914.00
2022-08-26T22:56:39.985Z,101911.66
2022-08-26T22:59:07.947Z,101911.66
2022-08-26T23:01:40.735Z,101907.78
2022-08-26T23:04:08.351Z,101906.19
2022-08-26T23:06:39.675Z,101909.75
2022-08-26T23:09:07.796Z,101905.44
2022-08-26T23:11:34.645Z,101906.59
2022-08-26T23:14:05.048Z,101905.81
2022-08-26T23:16:39.560Z,101906.59
2022-08-26T23:19:06.869Z,101905.03
2022-08-26T23:21:33.467Z,101903.47
2022-08-26T23:24:01.048Z,101899.59
2022-08-26T23:26:27.789Z,101902.31
2022-08-26T23:28:55.403Z,101903.50
2022-08-26T23:31:21.830Z,101899.19
2022-08-26T23:34:06.553Z,101896.41
2022-08-26T23:36:34.968Z,101895.22
2022-08-26T23:39:01.924Z,101901.16
2022-08-26T23:41:28.511Z,101903.09
2022-08-26T23:43:54.968Z,101898.41
2022-08-26T23:46:21.583Z,101902.31
2022-08-26T23:48:48.020Z,101899.59
2022-08-26T23:51:33.084Z,101897.25
2022-08-26T23:53:59.894Z,101890.59
2022-08-26T23:56:26.884Z,101890.94
2022-08-26T23:58:53.841Z,101888.22
